sensor_id;sensor_type;location;lat;lon;timestamp;P1;durP1;ratioP1;P2;durP2;ratioP2
27632;SDS011;15046;50.930;13.334;2024-02-26T00:01:58;28.05;;;17.00;;
27632;SDS011;15046;50.930;13.334;2024-02-26T00:04:24;28.08;;;15.75;;
27632;SDS011;15046;50.930;13.334;2024-02-26T00:06:49;26.15;;;15.82;;
27632;SDS011;15046;50.930;13.334;2024-02-26T00:09:16;25.58;;;15.73;;
27632;SDS011;15046;50.930;13.334;2024-02-26T00:11:42;25.08;;;14.98;;
27632;SDS011;15046;50.930;13.334;2024-02-26T00:14:07;26.52;;;15.70;;
27632;SDS011;15046;50.930;13.334;2024-02-26T00:16:33;26.45;;;15.63;;
27632;SDS011;15046;50.930;13.334;2024-02-26T00:18:59;27.20;;;15.45;;
27632;SDS011;15046;50.930;13.334;2024-02-26T00:21:25;25.92;;;15.27;;
27632;SDS011;15046;50.930;13.334;2024-02-26T00:23:50;28.90;;;15.57;;
27632;SDS011;15046;50.930;13.334;2024-02-26T00:26:17;25.30;;;14.63;;
27632;SDS011;15046;50.930;13.334;2024-02-26T00:28:43;24.48;;;14.77;;
27632;SDS011;15046;50.930;13.334;2024-02-26T00:31:09;24.65;;;14.77;;
27632;SDS011;15046;50.930;13.334;2024-02-26T00:33:36;25.20;;;13.70;;
27632;SDS011;15046;50.930;13.334;2024-02-26T00:36:02;25.20;;;13.77;;
27632;SDS011;15046;50.930;13.334;2024-02-26T00:38:28;23.25;;;14.75;;
27632;SDS011;15046;50.930;13.334;2024-02-26T00:40:54;22.35;;;13.20;;
27632;SDS011;15046;50.930;13.334;2024-02-26T00:43:20;24.92;;;13.57;;
27632;SDS011;15046;50.930;13.334;2024-02-26T00:45:46;21.13;;;12.25;;
27632;SDS011;15046;50.930;13.334;2024-02-26T00:48:12;23.50;;;12.02;;
27632;SDS011;15046;50.930;13.334;2024-02-26T00:50:39;26.67;;;14.15;;
27632;SDS011;15046;50.930;13.334;2024-02-26T00:53:05;21.70;;;12.40;;
27632;SDS011;15046;50.930;13.334;2024-02-26T00:55:31;21.17;;;12.00;;
27632;SDS011;15046;50.930;13.334;2024-02-26T00:57:56;20.92;;;12.50;;
27632;SDS011;15046;50.930;13.334;2024-02-26T01:00:22;23.15;;;12.95;;
27632;SDS011;15046;50.930;13.334;2024-02-26T01:02:48;26.10;;;13.82;;
27632;SDS011;15046;50.930;13.334;2024-02-26T01:05:14;21.50;;;12.63;;
27632;SDS011;15046;50.930;13.334;2024-02-26T01:07:41;21.80;;;12.55;;
27632;SDS011;15046;50.930;13.334;2024-02-26T01:10:07;22.45;;;12.95;;
27632;SDS011;15046;50.930;13.334;2024-02-26T01:12:33;24.42;;;12.82;;
27632;SDS011;15046;50.930;13.334;2024-02-26T01:15:00;22.70;;;13.55;;
27632;SDS011;15046;50.930;13.334;2024-02-26T01:17:28;23.73;;;13.93;;
27632;SDS011;15046;50.930;13.334;2024-02-26T01:19:53;22.88;;;13.32;;
27632;SDS011;15046;50.930;13.334;2024-02-26T01:22:19;25.33;;;14.23;;
27632;SDS011;15046;50.930;13.334;2024-02-26T01:24:45;25.77;;;13.82;;
27632;SDS011;15046;50.930;13.334;2024-02-26T01:27:11;27.17;;;14.52;;
27632;SDS011;15046;50.930;13.334;2024-02-26T01:29:37;28.00;;;14.63;;
27632;SDS011;15046;50.930;13.334;2024-02-26T01:32:03;23.00;;;13.45;;
27632;SDS011;15046;50.930;13.334;2024-02-26T01:34:30;26.27;;;14.40;;
27632;SDS011;15046;50.930;13.334;2024-02-26T01:36:56;22.17;;;13.20;;
27632;SDS011;15046;50.930;13.334;2024-02-26T01:39:22;25.90;;;14.10;;
27632;SDS011;15046;50.930;13.334;2024-02-26T01:41:48;22.50;;;13.73;;
27632;SDS011;15046;50.930;13.334;2024-02-26T01:44:14;21.85;;;12.95;;
27632;SDS011;15046;50.930;13.334;2024-02-26T01:46:39;20.77;;;12.70;;
27632;SDS011;15046;50.930;13.334;2024-02-26T01:49:06;22.80;;;13.77;;
27632;SDS011;15046;50.930;13.334;2024-02-26T01:51:33;24.70;;;13.85;;
27632;SDS011;15046;50.930;13.334;2024-02-26T01:54:01;21.17;;;11.88;;
27632;SDS011;15046;50.930;13.334;2024-02-26T01:56:28;22.58;;;13.35;;
27632;SDS011;15046;50.930;13.334;2024-02-26T01:58:58;22.00;;;13.55;;
27632;SDS011;15046;50.930;13.334;2024-02-26T02:01:27;21.50;;;12.60;;
27632;SDS011;15046;50.930;13.334;2024-02-26T02:03:56;20.60;;;12.05;;
27632;SDS011;15046;50.930;13.334;2024-02-26T02:06:23;21.80;;;11.70;;
27632;SDS011;15046;50.930;13.334;2024-02-26T02:08:50;21.58;;;12.52;;
27632;SDS011;15046;50.930;13.334;2024-02-26T02:11:16;20.67;;;12.02;;
27632;SDS011;15046;50.930;13.334;2024-02-26T02:13:42;22.02;;;13.13;;
27632;SDS011;15046;50.930;13.334;2024-02-26T02:16:08;20.38;;;11.75;;
27632;SDS011;15046;50.930;13.334;2024-02-26T02:18:34;23.17;;;11.80;;
27632;SDS011;15046;50.930;13.334;2024-02-26T02:21:00;22.65;;;12.52;;
27632;SDS011;15046;50.930;13.334;2024-02-26T02:23:26;19.23;;;12.30;;
27632;SDS011;15046;50.930;13.334;2024-02-26T02:25:52;23.25;;;12.25;;
27632;SDS011;15046;50.930;13.334;2024-02-26T02:28:22;22.98;;;12.70;;
27632;SDS011;15046;50.930;13.334;2024-02-26T02:30:50;26.88;;;12.95;;
27632;SDS011;15046;50.930;13.334;2024-02-26T02:35:43;21.85;;;12.38;;
27632;SDS011;15046;50.930;13.334;2024-02-26T02:38:09;19.60;;;11.05;;
27632;SDS011;15046;50.930;13.334;2024-02-26T02:40:35;23.60;;;11.73;;
27632;SDS011;15046;50.930;13.334;2024-02-26T02:43:01;20.88;;;11.50;;
27632;SDS011;15046;50.930;13.334;2024-02-26T02:45:28;18.23;;;10.80;;
27632;SDS011;15046;50.930;13.334;2024-02-26T02:47:53;22.05;;;12.45;;
27632;SDS011;15046;50.930;13.334;2024-02-26T02:50:19;28.85;;;12.95;;
27632;SDS011;15046;50.930;13.334;2024-02-26T02:52:45;21.05;;;12.07;;
27632;SDS011;15046;50.930;13.334;2024-02-26T02:55:11;22.10;;;12.45;;
27632;SDS011;15046;50.930;13.334;2024-02-26T02:57:37;23.55;;;12.20;;
27632;SDS011;15046;50.930;13.334;2024-02-26T03:00:09;23.35;;;12.48;;
27632;SDS011;15046;50.930;13.334;2024-02-26T03:02:35;18.42;;;11.48;;
27632;SDS011;15046;50.930;13.334;2024-02-26T03:05:02;22.65;;;12.30;;
27632;SDS011;15046;50.930;13.334;2024-02-26T03:07:29;22.85;;;13.48;;
27632;SDS011;15046;50.930;13.334;2024-02-26T03:09:55;25.77;;;13.88;;
27632;SDS011;15046;50.930;13.334;2024-02-26T03:12:20;23.90;;;13.57;;
27632;SDS011;15046;50.930;13.334;2024-02-26T03:14:46;23.70;;;12.80;;
27632;SDS011;15046;50.930;13.334;2024-02-26T03:17:13;24.25;;;14.70;;
27632;SDS011;15046;50.930;13.334;2024-02-26T03:19:39;24.70;;;13.82;;
27632;SDS011;15046;50.930;13.334;2024-02-26T03:22:04;22.85;;;12.85;;
27632;SDS011;15046;50.930;13.334;2024-02-26T03:24:30;21.63;;;12.93;;
27632;SDS011;15046;50.930;13.334;2024-02-26T03:26:56;27.13;;;13.25;;
27632;SDS011;15046;50.930;13.334;2024-02-26T03:29:22;22.95;;;13.10;;
27632;SDS011;15046;50.930;13.334;2024-02-26T03:31:48;23.20;;;13.27;;
27632;SDS011;15046;50.930;13.334;2024-02-26T03:34:13;25.42;;;13.60;;
27632;SDS011;15046;50.930;13.334;2024-02-26T03:36:40;23.05;;;13.00;;
27632;SDS011;15046;50.930;13.334;2024-02-26T03:39:07;23.17;;;13.45;;
27632;SDS011;15046;50.930;13.334;2024-02-26T03:41:36;23.73;;;13.20;;
27632;SDS011;15046;50.930;13.334;2024-02-26T03:44:02;21.40;;;13.00;;
27632;SDS011;15046;50.930;13.334;2024-02-26T03:46:28;22.50;;;12.07;;
27632;SDS011;15046;50.930;13.334;2024-02-26T03:48:54;20.98;;;12.32;;
27632;SDS011;15046;50.930;13.334;2024-02-26T03:51:19;23.02;;;12.98;;
27632;SDS011;15046;50.930;13.334;2024-02-26T03:53:45;24.80;;;14.73;;
27632;SDS011;15046;50.930;13.334;2024-02-26T03:56:11;24.52;;;12.55;;
27632;SDS011;15046;50.930;13.334;2024-02-26T03:58:40;23.92;;;13.25;;
27632;SDS011;15046;50.930;13.334;2024-02-26T04:01:09;23.75;;;13.60;;
27632;SDS011;15046;50.930;13.334;2024-02-26T04:03:35;22.10;;;12.57;;
27632;SDS011;15046;50.930;13.334;2024-02-26T04:06:01;26.67;;;13.70;;
27632;SDS011;15046;50.930;13.334;2024-02-26T04:08:27;26.42;;;13.80;;
27632;SDS011;15046;50.930;13.334;2024-02-26T04:10:53;24.13;;;13.55;;
27632;SDS011;15046;50.930;13.334;2024-02-26T04:13:19;21.67;;;12.98;;
27632;SDS011;15046;50.930;13.334;2024-02-26T04:15:45;23.85;;;12.57;;
27632;SDS011;15046;50.930;13.334;2024-02-26T04:18:11;26.27;;;12.98;;
27632;SDS011;15046;50.930;13.334;2024-02-26T04:20:39;22.02;;;12.60;;
27632;SDS011;15046;50.930;13.334;2024-02-26T04:23:07;22.90;;;13.85;;
27632;SDS011;15046;50.930;13.334;2024-02-26T04:25:32;24.98;;;12.60;;
27632;SDS011;15046;50.930;13.334;2024-02-26T04:27:58;25.13;;;12.48;;
27632;SDS011;15046;50.930;13.334;2024-02-26T04:30:24;23.02;;;12.52;;
27632;SDS011;15046;50.930;13.334;2024-02-26T04:32:50;25.55;;;13.32;;
27632;SDS011;15046;50.930;13.334;2024-02-26T04:35:16;24.73;;;13.05;;
27632;SDS011;15046;50.930;13.334;2024-02-26T04:37:42;23.90;;;13.38;;
27632;SDS011;15046;50.930;13.334;2024-02-26T04:40:08;27.08;;;13.13;;
27632;SDS011;15046;50.930;13.334;2024-02-26T04:42:34;25.55;;;12.93;;
27632;SDS011;15046;50.930;13.334;2024-02-26T04:45:00;29.55;;;14.02;;
27632;SDS011;15046;50.930;13.334;2024-02-26T04:47:26;27.50;;;13.80;;
27632;SDS011;15046;50.930;13.334;2024-02-26T04:49:52;25.20;;;13.20;;
27632;SDS011;15046;50.930;13.334;2024-02-26T04:52:18;28.60;;;13.38;;
27632;SDS011;15046;50.930;13.334;2024-02-26T04:54:44;25.73;;;13.43;;
27632;SDS011;15046;50.930;13.334;2024-02-26T04:57:10;30.55;;;14.68;;
27632;SDS011;15046;50.930;13.334;2024-02-26T04:59:35;26.23;;;13.88;;
27632;SDS011;15046;50.930;13.334;2024-02-26T05:02:01;27.65;;;13.95;;
27632;SDS011;15046;50.930;13.334;2024-02-26T05:04:28;23.27;;;12.65;;
27632;SDS011;15046;50.930;13.334;2024-02-26T05:06:53;28.20;;;13.93;;
27632;SDS011;15046;50.930;13.334;2024-02-26T05:09:19;33.25;;;15.27;;
27632;SDS011;15046;50.930;13.334;2024-02-26T05:11:45;25.15;;;14.55;;
27632;SDS011;15046;50.930;13.334;2024-02-26T05:14:11;24.98;;;13.93;;
27632;SDS011;15046;50.930;13.334;2024-02-26T05:16:37;26.02;;;12.77;;
27632;SDS011;15046;50.930;13.334;2024-02-26T05:19:02;28.38;;;13.57;;
27632;SDS011;15046;50.930;13.334;2024-02-26T05:21:28;24.25;;;13.38;;
27632;SDS011;15046;50.930;13.334;2024-02-26T05:23:54;23.13;;;11.77;;
27632;SDS011;15046;50.930;13.334;2024-02-26T05:26:20;24.95;;;12.52;;
27632;SDS011;15046;50.930;13.334;2024-02-26T05:28:47;22.92;;;11.52;;
27632;SDS011;15046;50.930;13.334;2024-02-26T05:31:13;27.27;;;12.10;;
27632;SDS011;15046;50.930;13.334;2024-02-26T05:33:39;23.50;;;12.27;;
27632;SDS011;15046;50.930;13.334;2024-02-26T05:36:05;23.50;;;13.57;;
27632;SDS011;15046;50.930;13.334;2024-02-26T05:38:31;27.23;;;13.57;;
27632;SDS011;15046;50.930;13.334;2024-02-26T05:40:58;22.98;;;13.57;;
27632;SDS011;15046;50.930;13.334;2024-02-26T05:43:24;26.85;;;13.40;;
27632;SDS011;15046;50.930;13.334;2024-02-26T05:45:50;24.38;;;13.18;;
27632;SDS011;15046;50.930;13.334;2024-02-26T05:48:17;22.85;;;12.20;;
27632;SDS011;15046;50.930;13.334;2024-02-26T05:50:44;27.27;;;13.38;;
27632;SDS011;15046;50.930;13.334;2024-02-26T05:53:10;24.50;;;13.07;;
27632;SDS011;15046;50.930;13.334;2024-02-26T05:55:37;22.77;;;12.38;;
27632;SDS011;15046;50.930;13.334;2024-02-26T05:58:03;24.67;;;11.60;;
27632;SDS011;15046;50.930;13.334;2024-02-26T06:00:29;27.15;;;14.10;;
27632;SDS011;15046;50.930;13.334;2024-02-26T06:02:55;27.95;;;13.07;;
27632;SDS011;15046;50.930;13.334;2024-02-26T06:05:21;22.23;;;13.07;;
27632;SDS011;15046;50.930;13.334;2024-02-26T06:07:46;28.40;;;13.73;;
27632;SDS011;15046;50.930;13.334;2024-02-26T06:10:12;23.35;;;13.40;;
27632;SDS011;15046;50.930;13.334;2024-02-26T06:12:41;29.17;;;13.48;;
27632;SDS011;15046;50.930;13.334;2024-02-26T06:15:07;26.27;;;14.48;;
27632;SDS011;15046;50.930;13.334;2024-02-26T06:17:34;26.67;;;13.32;;
27632;SDS011;15046;50.930;13.334;2024-02-26T06:20:00;25.88;;;13.45;;
27632;SDS011;15046;50.930;13.334;2024-02-26T06:22:26;24.98;;;14.15;;
27632;SDS011;15046;50.930;13.334;2024-02-26T06:24:52;25.50;;;14.73;;
27632;SDS011;15046;50.930;13.334;2024-02-26T06:27:18;27.40;;;14.50;;
27632;SDS011;15046;50.930;13.334;2024-02-26T06:29:44;28.67;;;15.05;;
27632;SDS011;15046;50.930;13.334;2024-02-26T06:32:09;28.42;;;15.48;;
27632;SDS011;15046;50.930;13.334;2024-02-26T06:34:35;28.42;;;14.30;;
27632;SDS011;15046;50.930;13.334;2024-02-26T06:37:03;29.42;;;14.93;;
27632;SDS011;15046;50.930;13.334;2024-02-26T06:39:29;33.42;;;15.63;;
27632;SDS011;15046;50.930;13.334;2024-02-26T06:41:55;34.30;;;16.27;;
27632;SDS011;15046;50.930;13.334;2024-02-26T06:44:25;29.63;;;14.95;;
27632;SDS011;15046;50.930;13.334;2024-02-26T06:46:56;32.60;;;16.67;;
27632;SDS011;15046;50.930;13.334;2024-02-26T06:49:26;33.83;;;16.38;;
27632;SDS011;15046;50.930;13.334;2024-02-26T06:51:52;38.00;;;17.73;;
27632;SDS011;15046;50.930;13.334;2024-02-26T06:54:18;34.42;;;16.48;;
27632;SDS011;15046;50.930;13.334;2024-02-26T06:56:44;32.65;;;16.92;;
27632;SDS011;15046;50.930;13.334;2024-02-26T06:59:10;31.75;;;15.65;;
27632;SDS011;15046;50.930;13.334;2024-02-26T07:01:35;33.22;;;15.60;;
27632;SDS011;15046;50.930;13.334;2024-02-26T07:04:01;31.95;;;15.75;;
27632;SDS011;15046;50.930;13.334;2024-02-26T07:06:27;33.10;;;16.27;;
27632;SDS011;15046;50.930;13.334;2024-02-26T07:08:53;30.67;;;15.55;;
27632;SDS011;15046;50.930;13.334;2024-02-26T07:11:19;28.15;;;15.05;;
27632;SDS011;15046;50.930;13.334;2024-02-26T07:13:45;31.52;;;14.43;;
27632;SDS011;15046;50.930;13.334;2024-02-26T07:16:11;31.02;;;16.52;;
27632;SDS011;15046;50.930;13.334;2024-02-26T07:18:38;26.88;;;14.73;;
27632;SDS011;15046;50.930;13.334;2024-02-26T07:21:04;28.15;;;14.30;;
27632;SDS011;15046;50.930;13.334;2024-02-26T07:23:31;27.08;;;13.45;;
27632;SDS011;15046;50.930;13.334;2024-02-26T07:25:57;29.33;;;14.73;;
27632;SDS011;15046;50.930;13.334;2024-02-26T07:28:23;27.80;;;14.68;;
27632;SDS011;15046;50.930;13.334;2024-02-26T07:30:49;29.20;;;14.75;;
27632;SDS011;15046;50.930;13.334;2024-02-26T07:33:15;28.52;;;14.63;;
27632;SDS011;15046;50.930;13.334;2024-02-26T07:35:41;26.92;;;15.88;;
27632;SDS011;15046;50.930;13.334;2024-02-26T07:38:06;27.45;;;15.50;;
27632;SDS011;15046;50.930;13.334;2024-02-26T07:40:32;25.65;;;15.20;;
27632;SDS011;15046;50.930;13.334;2024-02-26T07:42:58;25.05;;;13.82;;
27632;SDS011;15046;50.930;13.334;2024-02-26T07:45:24;28.60;;;16.05;;
27632;SDS011;15046;50.930;13.334;2024-02-26T07:47:49;29.00;;;15.55;;
27632;SDS011;15046;50.930;13.334;2024-02-26T07:50:17;24.80;;;13.88;;
27632;SDS011;15046;50.930;13.334;2024-02-26T07:52:43;19.10;;;11.80;;
27632;SDS011;15046;50.930;13.334;2024-02-26T07:55:09;20.77;;;12.20;;
27632;SDS011;15046;50.930;13.334;2024-02-26T07:57:35;22.63;;;13.10;;
27632;SDS011;15046;50.930;13.334;2024-02-26T08:00:02;25.45;;;14.15;;
27632;SDS011;15046;50.930;13.334;2024-02-26T08:02:28;28.55;;;13.82;;
27632;SDS011;15046;50.930;13.334;2024-02-26T08:04:54;23.92;;;13.52;;
27632;SDS011;15046;50.930;13.334;2024-02-26T08:07:20;21.88;;;12.32;;
27632;SDS011;15046;50.930;13.334;2024-02-26T08:09:46;21.20;;;11.73;;
27632;SDS011;15046;50.930;13.334;2024-02-26T08:12:12;21.75;;;12.13;;
27632;SDS011;15046;50.930;13.334;2024-02-26T08:14:39;22.45;;;11.50;;
27632;SDS011;15046;50.930;13.334;2024-02-26T08:17:05;22.25;;;12.32;;
27632;SDS011;15046;50.930;13.334;2024-02-26T08:19:31;20.65;;;12.27;;
27632;SDS011;15046;50.930;13.334;2024-02-26T08:21:57;19.80;;;11.02;;
27632;SDS011;15046;50.930;13.334;2024-02-26T08:24:23;19.15;;;11.38;;
27632;SDS011;15046;50.930;13.334;2024-02-26T08:26:49;17.65;;;10.77;;
27632;SDS011;15046;50.930;13.334;2024-02-26T08:29:14;20.65;;;11.73;;
27632;SDS011;15046;50.930;13.334;2024-02-26T08:31:40;21.25;;;11.85;;
27632;SDS011;15046;50.930;13.334;2024-02-26T08:34:06;20.85;;;11.38;;
27632;SDS011;15046;50.930;13.334;2024-02-26T08:36:33;20.52;;;11.85;;
27632;SDS011;15046;50.930;13.334;2024-02-26T08:38:59;18.95;;;10.05;;
27632;SDS011;15046;50.930;13.334;2024-02-26T08:41:25;20.08;;;10.48;;
27632;SDS011;15046;50.930;13.334;2024-02-26T08:43:51;16.00;;;9.85;;
27632;SDS011;15046;50.930;13.334;2024-02-26T08:46:17;16.35;;;9.20;;
27632;SDS011;15046;50.930;13.334;2024-02-26T08:48:42;17.40;;;8.75;;
27632;SDS011;15046;50.930;13.334;2024-02-26T08:51:08;15.68;;;8.10;;
27632;SDS011;15046;50.930;13.334;2024-02-26T08:53:38;19.33;;;8.32;;
27632;SDS011;15046;50.930;13.334;2024-02-26T08:56:04;15.00;;;8.63;;
27632;SDS011;15046;50.930;13.334;2024-02-26T08:58:30;16.00;;;8.05;;
27632;SDS011;15046;50.930;13.334;2024-02-26T09:00:56;14.50;;;9.48;;
27632;SDS011;15046;50.930;13.334;2024-02-26T09:03:22;16.90;;;10.13;;
27632;SDS011;15046;50.930;13.334;2024-02-26T09:05:48;19.02;;;10.23;;
27632;SDS011;15046;50.930;13.334;2024-02-26T09:08:14;15.82;;;10.57;;
27632;SDS011;15046;50.930;13.334;2024-02-26T09:10:40;13.52;;;8.25;;
27632;SDS011;15046;50.930;13.334;2024-02-26T09:13:05;14.70;;;8.15;;
27632;SDS011;15046;50.930;13.334;2024-02-26T09:15:31;17.42;;;9.20;;
27632;SDS011;15046;50.930;13.334;2024-02-26T09:17:57;13.43;;;8.57;;
27632;SDS011;15046;50.930;13.334;2024-02-26T09:20:23;14.32;;;8.18;;
27632;SDS011;15046;50.930;13.334;2024-02-26T09:22:49;19.92;;;8.70;;
27632;SDS011;15046;50.930;13.334;2024-02-26T09:25:16;13.90;;;6.78;;
27632;SDS011;15046;50.930;13.334;2024-02-26T09:27:42;17.42;;;8.52;;
27632;SDS011;15046;50.930;13.334;2024-02-26T09:30:09;11.18;;;7.43;;
27632;SDS011;15046;50.930;13.334;2024-02-26T09:32:36;11.45;;;7.50;;
27632;SDS011;15046;50.930;13.334;2024-02-26T09:35:02;15.25;;;7.10;;
27632;SDS011;15046;50.930;13.334;2024-02-26T09:37:28;15.10;;;8.63;;
27632;SDS011;15046;50.930;13.334;2024-02-26T09:39:54;10.55;;;7.18;;
27632;SDS011;15046;50.930;13.334;2024-02-26T09:42:19;11.40;;;7.28;;
27632;SDS011;15046;50.930;13.334;2024-02-26T09:44:45;12.80;;;7.28;;
27632;SDS011;15046;50.930;13.334;2024-02-26T09:47:16;13.10;;;6.47;;
27632;SDS011;15046;50.930;13.334;2024-02-26T09:49:42;11.57;;;5.85;;
27632;SDS011;15046;50.930;13.334;2024-02-26T09:52:08;11.27;;;6.40;;
27632;SDS011;15046;50.930;13.334;2024-02-26T09:54:35;10.93;;;6.38;;
27632;SDS011;15046;50.930;13.334;2024-02-26T09:57:02;11.48;;;6.70;;
27632;SDS011;15046;50.930;13.334;2024-02-26T09:59:37;11.73;;;6.28;;
27632;SDS011;15046;50.930;13.334;2024-02-26T10:02:14;13.40;;;6.93;;
27632;SDS011;15046;50.930;13.334;2024-02-26T10:04:41;11.10;;;7.30;;
27632;SDS011;15046;50.930;13.334;2024-02-26T10:07:11;11.13;;;6.43;;
27632;SDS011;15046;50.930;13.334;2024-02-26T10:09:38;9.32;;;6.07;;
27632;SDS011;15046;50.930;13.334;2024-02-26T10:12:04;13.40;;;7.82;;
27632;SDS011;15046;50.930;13.334;2024-02-26T10:14:32;10.65;;;7.13;;
27632;SDS011;15046;50.930;13.334;2024-02-26T10:16:58;11.75;;;6.85;;
27632;SDS011;15046;50.930;13.334;2024-02-26T10:19:29;11.82;;;6.97;;
27632;SDS011;15046;50.930;13.334;2024-02-26T10:21:59;11.95;;;7.03;;
27632;SDS011;15046;50.930;13.334;2024-02-26T10:26:52;11.45;;;6.45;;
27632;SDS011;15046;50.930;13.334;2024-02-26T10:29:19;11.77;;;6.32;;
27632;SDS011;15046;50.930;13.334;2024-02-26T10:31:46;8.70;;;5.57;;
27632;SDS011;15046;50.930;13.334;2024-02-26T10:34:12;12.55;;;6.32;;
27632;SDS011;15046;50.930;13.334;2024-02-26T10:36:38;13.43;;;5.72;;
27632;SDS011;15046;50.930;13.334;2024-02-26T10:39:06;10.15;;;6.43;;
27632;SDS011;15046;50.930;13.334;2024-02-26T10:41:35;9.77;;;6.25;;
27632;SDS011;15046;50.930;13.334;2024-02-26T10:44:01;10.00;;;5.80;;
27632;SDS011;15046;50.930;13.334;2024-02-26T10:46:27;11.35;;;6.43;;
27632;SDS011;15046;50.930;13.334;2024-02-26T10:48:53;9.15;;;6.15;;
27632;SDS011;15046;50.930;13.334;2024-02-26T10:51:26;9.63;;;5.88;;
27632;SDS011;15046;50.930;13.334;2024-02-26T10:53:56;9.75;;;5.78;;
27632;SDS011;15046;50.930;13.334;2024-02-26T10:56:27;8.68;;;5.85;;
27632;SDS011;15046;50.930;13.334;2024-02-26T10:58:57;8.13;;;4.97;;
27632;SDS011;15046;50.930;13.334;2024-02-26T11:01:24;8.18;;;4.95;;
27632;SDS011;15046;50.930;13.334;2024-02-26T11:03:55;10.18;;;5.28;;
27632;SDS011;15046;50.930;13.334;2024-02-26T11:06:22;8.00;;;5.13;;
27632;SDS011;15046;50.930;13.334;2024-02-26T11:08:50;8.05;;;5.53;;
27632;SDS011;15046;50.930;13.334;2024-02-26T11:13:44;9.35;;;5.32;;
27632;SDS011;15046;50.930;13.334;2024-02-26T11:16:18;9.75;;;5.38;;
27632;SDS011;15046;50.930;13.334;2024-02-26T11:21:13;9.60;;;5.32;;
27632;SDS011;15046;50.930;13.334;2024-02-26T11:23:41;11.38;;;5.85;;
27632;SDS011;15046;50.930;13.334;2024-02-26T11:26:08;7.00;;;4.80;;
27632;SDS011;15046;50.930;13.334;2024-02-26T11:28:36;9.05;;;5.35;;
27632;SDS011;15046;50.930;13.334;2024-02-26T11:31:03;9.95;;;5.53;;
27632;SDS011;15046;50.930;13.334;2024-02-26T11:33:30;8.55;;;4.95;;
27632;SDS011;15046;50.930;13.334;2024-02-26T11:35:56;6.88;;;4.40;;
27632;SDS011;15046;50.930;13.334;2024-02-26T11:38:24;6.97;;;4.80;;
27632;SDS011;15046;50.930;13.334;2024-02-26T11:40:52;7.35;;;4.32;;
27632;SDS011;15046;50.930;13.334;2024-02-26T11:43:22;7.93;;;4.30;;
27632;SDS011;15046;50.930;13.334;2024-02-26T11:46:24;7.88;;;4.60;;
27632;SDS011;15046;50.930;13.334;2024-02-26T11:51:55;7.38;;;4.35;;
27632;SDS011;15046;50.930;13.334;2024-02-26T12:00:17;6.90;;;4.00;;
27632;SDS011;15046;50.930;13.334;2024-02-26T12:02:49;8.90;;;4.30;;
27632;SDS011;15046;50.930;13.334;2024-02-26T12:05:23;7.43;;;3.92;;
27632;SDS011;15046;50.930;13.334;2024-02-26T12:15:36;8.80;;;4.68;;
27632;SDS011;15046;50.930;13.334;2024-02-26T12:18:05;7.78;;;4.65;;
27632;SDS011;15046;50.930;13.334;2024-02-26T12:20:32;7.65;;;4.82;;
27632;SDS011;15046;50.930;13.334;2024-02-26T12:23:00;10.43;;;4.97;;
27632;SDS011;15046;50.930;13.334;2024-02-26T12:25:29;9.18;;;5.65;;
27632;SDS011;15046;50.930;13.334;2024-02-26T12:27:56;9.40;;;5.78;;
27632;SDS011;15046;50.930;13.334;2024-02-26T12:30:22;11.05;;;5.63;;
27632;SDS011;15046;50.930;13.334;2024-02-26T12:32:51;10.20;;;6.53;;
27632;SDS011;15046;50.930;13.334;2024-02-26T12:35:17;9.02;;;6.10;;
27632;SDS011;15046;50.930;13.334;2024-02-26T12:37:43;9.85;;;6.25;;
27632;SDS011;15046;50.930;13.334;2024-02-26T12:40:10;10.98;;;5.88;;
27632;SDS011;15046;50.930;13.334;2024-02-26T12:42:36;9.90;;;6.55;;
27632;SDS011;15046;50.930;13.334;2024-02-26T12:45:07;10.27;;;6.50;;
27632;SDS011;15046;50.930;13.334;2024-02-26T12:47:38;13.13;;;7.40;;
27632;SDS011;15046;50.930;13.334;2024-02-26T12:50:04;11.10;;;6.80;;
27632;SDS011;15046;50.930;13.334;2024-02-26T12:52:34;12.80;;;7.13;;
27632;SDS011;15046;50.930;13.334;2024-02-26T12:55:01;11.15;;;6.80;;
27632;SDS011;15046;50.930;13.334;2024-02-26T12:57:29;11.07;;;7.60;;
27632;SDS011;15046;50.930;13.334;2024-02-26T13:00:00;12.40;;;7.50;;
27632;SDS011;15046;50.930;13.334;2024-02-26T13:02:28;11.20;;;7.32;;
27632;SDS011;15046;50.930;13.334;2024-02-26T13:04:54;12.50;;;7.45;;
27632;SDS011;15046;50.930;13.334;2024-02-26T13:07:21;14.10;;;7.30;;
27632;SDS011;15046;50.930;13.334;2024-02-26T13:09:47;12.32;;;7.97;;
27632;SDS011;15046;50.930;13.334;2024-02-26T13:12:13;12.13;;;7.90;;
27632;SDS011;15046;50.930;13.334;2024-02-26T13:14:39;12.95;;;8.45;;
27632;SDS011;15046;50.930;13.334;2024-02-26T13:17:05;12.82;;;8.38;;
27632;SDS011;15046;50.930;13.334;2024-02-26T13:19:31;12.43;;;8.30;;
27632;SDS011;15046;50.930;13.334;2024-02-26T13:22:04;10.60;;;7.30;;
27632;SDS011;15046;50.930;13.334;2024-02-26T13:24:31;14.85;;;7.22;;
27632;SDS011;15046;50.930;13.334;2024-02-26T13:26:58;12.40;;;8.18;;
27632;SDS011;15046;50.930;13.334;2024-02-26T13:29:23;14.23;;;8.20;;
27632;SDS011;15046;50.930;13.334;2024-02-26T13:31:54;14.50;;;7.40;;
27632;SDS011;15046;50.930;13.334;2024-02-26T13:34:22;13.75;;;7.82;;
27632;SDS011;15046;50.930;13.334;2024-02-26T13:36:52;11.30;;;7.32;;
27632;SDS011;15046;50.930;13.334;2024-02-26T13:39:26;14.48;;;7.93;;
27632;SDS011;15046;50.930;13.334;2024-02-26T13:41:53;12.05;;;7.32;;
27632;SDS011;15046;50.930;13.334;2024-02-26T13:44:20;13.30;;;7.60;;
27632;SDS011;15046;50.930;13.334;2024-02-26T13:46:46;12.73;;;7.38;;
27632;SDS011;15046;50.930;13.334;2024-02-26T13:49:13;14.18;;;7.47;;
27632;SDS011;15046;50.930;13.334;2024-02-26T13:51:39;13.23;;;6.75;;
27632;SDS011;15046;50.930;13.334;2024-02-26T13:54:05;9.75;;;5.97;;
27632;SDS011;15046;50.930;13.334;2024-02-26T13:56:31;11.63;;;7.10;;
27632;SDS011;15046;50.930;13.334;2024-02-26T13:58:57;13.23;;;6.97;;
27632;SDS011;15046;50.930;13.334;2024-02-26T14:01:24;11.35;;;6.97;;
27632;SDS011;15046;50.930;13.334;2024-02-26T14:03:50;12.30;;;8.15;;
27632;SDS011;15046;50.930;13.334;2024-02-26T14:06:16;11.57;;;7.18;;
27632;SDS011;15046;50.930;13.334;2024-02-26T14:08:41;13.38;;;8.52;;
27632;SDS011;15046;50.930;13.334;2024-02-26T14:11:07;10.90;;;6.80;;
27632;SDS011;15046;50.930;13.334;2024-02-26T14:13:33;9.82;;;6.60;;
27632;SDS011;15046;50.930;13.334;2024-02-26T14:15:59;11.52;;;6.30;;
27632;SDS011;15046;50.930;13.334;2024-02-26T14:18:25;11.02;;;6.75;;
27632;SDS011;15046;50.930;13.334;2024-02-26T14:20:52;12.68;;;8.30;;
27632;SDS011;15046;50.930;13.334;2024-02-26T14:23:18;9.68;;;6.75;;
27632;SDS011;15046;50.930;13.334;2024-02-26T14:25:43;11.95;;;7.82;;
27632;SDS011;15046;50.930;13.334;2024-02-26T14:28:09;10.68;;;6.90;;
27632;SDS011;15046;50.930;13.334;2024-02-26T14:30:35;12.85;;;7.07;;
27632;SDS011;15046;50.930;13.334;2024-02-26T14:33:01;11.85;;;6.60;;
27632;SDS011;15046;50.930;13.334;2024-02-26T14:35:28;12.65;;;6.90;;
27632;SDS011;15046;50.930;13.334;2024-02-26T14:37:53;14.20;;;7.38;;
27632;SDS011;15046;50.930;13.334;2024-02-26T14:40:20;15.43;;;8.00;;